sensor_id;sensor_type;location;lat;lon;timestamp;temperature;humidity
69595;DHT22;56800;52.142;5.364;2023-06-24T00:00:08;20.20;60.90
69595;DHT22;56800;52.142;5.364;2023-06-24T00:02:38;20.20;61.00
69595;DHT22;56800;52.142;5.364;2023-06-24T00:05:05;20.20;61.00
69595;DHT22;56800;52.142;5.364;2023-06-24T00:07:33;20.20;61.10
69595;DHT22;56800;52.142;5.364;2023-06-24T00:10:02;20.20;61.10
69595;DHT22;56800;52.142;5.364;2023-06-24T00:12:30;20.20;61.20
69595;DHT22;56800;52.142;5.364;2023-06-24T00:14:56;20.20;61.30
69595;DHT22;56800;52.142;5.364;2023-06-24T00:17:23;20.20;61.30
69595;DHT22;56800;52.142;5.364;2023-06-24T00:19:50;20.20;61.20
69595;DHT22;56800;52.142;5.364;2023-06-24T00:22:16;20.20;61.20
69595;DHT22;56800;52.142;5.364;2023-06-24T00:24:43;20.20;61.20
69595;DHT22;56800;52.142;5.364;2023-06-24T00:27:10;20.20;61.10
69595;DHT22;56800;52.142;5.364;2023-06-24T00:29:37;20.10;60.80
69595;DHT22;56800;52.142;5.364;2023-06-24T00:32:04;20.10;60.70
69595;DHT22;56800;52.142;5.364;2023-06-24T00:34:31;20.10;60.70
69595;DHT22;56800;52.142;5.364;2023-06-24T00:36:58;20.10;60.80
69595;DHT22;56800;52.142;5.364;2023-06-24T00:39:24;20.10;60.80
69595;DHT22;56800;52.142;5.364;2023-06-24T00:41:51;20.00;60.70
69595;DHT22;56800;52.142;5.364;2023-06-24T00:44:19;20.10;60.70
69595;DHT22;56800;52.142;5.364;2023-06-24T00:46:46;20.10;60.80
69595;DHT22;56800;52.142;5.364;2023-06-24T00:49:13;20.10;60.70
69595;DHT22;56800;52.142;5.364;2023-06-24T00:51:40;20.00;60.70
69595;DHT22;56800;52.142;5.364;2023-06-24T00:54:17;20.00;60.80
69595;DHT22;56800;52.142;5.364;2023-06-24T00:56:45;20.00;60.80
69595;DHT22;56800;52.142;5.364;2023-06-24T00:59:14;19.90;61.00
69595;DHT22;56800;52.142;5.364;2023-06-24T01:01:41;19.90;61.00
69595;DHT22;56800;52.142;5.364;2023-06-24T01:04:09;20.00;61.10
69595;DHT22;56800;52.142;5.364;2023-06-24T01:06:36;19.90;61.10
69595;DHT22;56800;52.142;5.364;2023-06-24T01:09:03;19.90;61.20
69595;DHT22;56800;52.142;5.364;2023-06-24T01:11:31;19.90;61.20
69595;DHT22;56800;52.142;5.364;2023-06-24T01:13:58;19.90;61.20
69595;DHT22;56800;52.142;5.364;2023-06-24T01:17:14;19.90;61.30
69595;DHT22;56800;52.142;5.364;2023-06-24T01:28:02;19.80;62.00
69595;DHT22;56800;52.142;5.364;2023-06-24T01:33:24;19.70;62.10
69595;DHT22;56800;52.142;5.364;2023-06-24T01:35:53;19.70;62.30
69595;DHT22;56800;52.142;5.364;2023-06-24T01:38:36;19.70;62.40
69595;DHT22;56800;52.142;5.364;2023-06-24T01:41:09;19.60;62.40
69595;DHT22;56800;52.142;5.364;2023-06-24T01:43:40;19.60;62.40
69595;DHT22;56800;52.142;5.364;2023-06-24T01:46:10;19.60;62.50
69595;DHT22;56800;52.142;5.364;2023-06-24T01:48:39;19.50;62.60
69595;DHT22;56800;52.142;5.364;2023-06-24T01:51:11;19.50;62.60
69595;DHT22;56800;52.142;5.364;2023-06-24T01:53:40;19.40;62.60
69595;DHT22;56800;52.142;5.364;2023-06-24T01:56:11;19.40;62.70
69595;DHT22;56800;52.142;5.364;2023-06-24T01:58:39;19.40;62.80
69595;DHT22;56800;52.142;5.364;2023-06-24T02:01:07;19.30;62.80
69595;DHT22;56800;52.142;5.364;2023-06-24T02:03:34;19.30;62.70
69595;DHT22;56800;52.142;5.364;2023-06-24T02:06:03;19.30;62.80
69595;DHT22;56800;52.142;5.364;2023-06-24T02:08:33;19.20;62.80
69595;DHT22;56800;52.142;5.364;2023-06-24T02:11:01;19.20;63.00
69595;DHT22;56800;52.142;5.364;2023-06-24T02:13:33;19.20;63.10
69595;DHT22;56800;52.142;5.364;2023-06-24T02:16:03;19.10;63.30
69595;DHT22;56800;52.142;5.364;2023-06-24T02:18:33;19.00;63.40
69595;DHT22;56800;52.142;5.364;2023-06-24T02:21:01;19.00;63.50
69595;DHT22;56800;52.142;5.364;2023-06-24T02:23:30;19.00;63.70
69595;DHT22;56800;52.142;5.364;2023-06-24T02:25:58;19.00;63.70
69595;DHT22;56800;52.142;5.364;2023-06-24T02:28:26;18.90;63.80
69595;DHT22;56800;52.142;5.364;2023-06-24T02:30:54;18.90;64.00
69595;DHT22;56800;52.142;5.364;2023-06-24T02:33:21;18.90;64.10
69595;DHT22;56800;52.142;5.364;2023-06-24T02:35:47;18.80;64.20
69595;DHT22;56800;52.142;5.364;2023-06-24T02:38:14;18.80;64.30
69595;DHT22;56800;52.142;5.364;2023-06-24T02:40:46;18.80;64.50
69595;DHT22;56800;52.142;5.364;2023-06-24T02:43:13;18.70;64.60
69595;DHT22;56800;52.142;5.364;2023-06-24T02:45:40;18.70;64.80
69595;DHT22;56800;52.142;5.364;2023-06-24T02:48:09;18.70;65.10
69595;DHT22;56800;52.142;5.364;2023-06-24T02:50:37;18.60;65.20
69595;DHT22;56800;52.142;5.364;2023-06-24T02:53:05;18.60;65.20
69595;DHT22;56800;52.142;5.364;2023-06-24T02:55:33;18.60;65.30
69595;DHT22;56800;52.142;5.364;2023-06-24T02:58:02;18.50;65.50
69595;DHT22;56800;52.142;5.364;2023-06-24T03:00:29;18.50;65.80
69595;DHT22;56800;52.142;5.364;2023-06-24T03:03:02;18.40;65.80
69595;DHT22;56800;52.142;5.364;2023-06-24T03:05:31;18.50;66.80
69595;DHT22;56800;52.142;5.364;2023-06-24T03:08:00;18.40;66.00
69595;DHT22;56800;52.142;5.364;2023-06-24T03:10:27;18.40;66.20
69595;DHT22;56800;52.142;5.364;2023-06-24T03:12:54;18.40;66.30
69595;DHT22;56800;52.142;5.364;2023-06-24T03:15:21;18.30;66.40
69595;DHT22;56800;52.142;5.364;2023-06-24T03:17:47;18.30;66.50
69595;DHT22;56800;52.142;5.364;2023-06-24T03:20:14;18.30;66.60
69595;DHT22;56800;52.142;5.364;2023-06-24T03:22:41;18.30;66.80
69595;DHT22;56800;52.142;5.364;2023-06-24T03:25:08;18.30;66.80
69595;DHT22;56800;52.142;5.364;2023-06-24T03:27:34;18.30;66.80
69595;DHT22;56800;52.142;5.364;2023-06-24T03:30:01;18.30;66.80
69595;DHT22;56800;52.142;5.364;2023-06-24T03:32:28;18.20;66.70
69595;DHT22;56800;52.142;5.364;2023-06-24T03:34:54;18.20;66.70
69595;DHT22;56800;52.142;5.364;2023-06-24T03:37:21;18.20;66.60
69595;DHT22;56800;52.142;5.364;2023-06-24T03:39:48;18.20;66.50
69595;DHT22;56800;52.142;5.364;2023-06-24T03:42:15;18.20;66.40
69595;DHT22;56800;52.142;5.364;2023-06-24T03:44:41;18.20;66.20
69595;DHT22;56800;52.142;5.364;2023-06-24T03:47:08;18.30;66.20
69595;DHT22;56800;52.142;5.364;2023-06-24T03:49:35;18.30;66.10
69595;DHT22;56800;52.142;5.364;2023-06-24T03:52:02;18.30;65.90
69595;DHT22;56800;52.142;5.364;2023-06-24T03:54:30;18.30;65.80
69595;DHT22;56800;52.142;5.364;2023-06-24T03:56:56;18.30;65.60
69595;DHT22;56800;52.142;5.364;2023-06-24T03:59:23;18.30;65.60
69595;DHT22;56800;52.142;5.364;2023-06-24T04:01:50;18.30;65.50
69595;DHT22;56800;52.142;5.364;2023-06-24T04:04:18;18.30;65.40
69595;DHT22;56800;52.142;5.364;2023-06-24T04:06:44;18.30;65.30
69595;DHT22;56800;52.142;5.364;2023-06-24T04:09:11;18.30;65.20
69595;DHT22;56800;52.142;5.364;2023-06-24T04:11:38;18.30;65.20
69595;DHT22;56800;52.142;5.364;2023-06-24T04:14:04;18.30;65.10
69595;DHT22;56800;52.142;5.364;2023-06-24T04:16:33;18.30;65.10
69595;DHT22;56800;52.142;5.364;2023-06-24T04:19:00;18.40;65.00
69595;DHT22;56800;52.142;5.364;2023-06-24T04:21:27;18.30;65.00
69595;DHT22;56800;52.142;5.364;2023-06-24T04:23:53;18.40;65.00
69595;DHT22;56800;52.142;5.364;2023-06-24T04:26:20;18.40;64.90
69595;DHT22;56800;52.142;5.364;2023-06-24T04:28:47;18.40;64.80
69595;DHT22;56800;52.142;5.364;2023-06-24T04:31:14;18.40;64.80
69595;DHT22;56800;52.142;5.364;2023-06-24T04:33:40;18.40;64.70
69595;DHT22;56800;52.142;5.364;2023-06-24T04:36:07;18.40;64.60
69595;DHT22;56800;52.142;5.364;2023-06-24T04:38:34;18.40;64.60
69595;DHT22;56800;52.142;5.364;2023-06-24T04:41:00;18.50;64.70
69595;DHT22;56800;52.142;5.364;2023-06-24T04:43:27;18.50;64.80
69595;DHT22;56800;52.142;5.364;2023-06-24T04:45:57;18.50;64.90
69595;DHT22;56800;52.142;5.364;2023-06-24T04:48:24;18.50;64.90
69595;DHT22;56800;52.142;5.364;2023-06-24T04:50:51;18.50;65.00
69595;DHT22;56800;52.142;5.364;2023-06-24T04:53:20;18.50;65.10
69595;DHT22;56800;52.142;5.364;2023-06-24T04:55:47;18.50;65.10
69595;DHT22;56800;52.142;5.364;2023-06-24T04:58:14;18.50;65.20
69595;DHT22;56800;52.142;5.364;2023-06-24T05:00:40;18.60;65.20
69595;DHT22;56800;52.142;5.364;2023-06-24T05:03:07;18.60;65.20
69595;DHT22;56800;52.142;5.364;2023-06-24T05:05:34;18.60;64.90
69595;DHT22;56800;52.142;5.364;2023-06-24T05:08:02;18.60;64.80
69595;DHT22;56800;52.142;5.364;2023-06-24T05:10:29;18.70;64.70
69595;DHT22;56800;52.142;5.364;2023-06-24T05:12:55;18.70;64.80
69595;DHT22;56800;52.142;5.364;2023-06-24T05:15:22;18.70;64.50
69595;DHT22;56800;52.142;5.364;2023-06-24T05:17:49;18.70;64.40
69595;DHT22;56800;52.142;5.364;2023-06-24T05:20:19;18.70;64.40
69595;DHT22;56800;52.142;5.364;2023-06-24T05:22:45;18.80;64.40
69595;DHT22;56800;52.142;5.364;2023-06-24T05:25:12;18.80;64.30
69595;DHT22;56800;52.142;5.364;2023-06-24T05:27:40;18.80;64.20
69595;DHT22;56800;52.142;5.364;2023-06-24T05:30:07;18.80;64.10
69595;DHT22;56800;52.142;5.364;2023-06-24T05:32:34;18.90;64.30
69595;DHT22;56800;52.142;5.364;2023-06-24T05:35:00;19.00;64.20
69595;DHT22;56800;52.142;5.364;2023-06-24T05:37:27;19.00;64.10
69595;DHT22;56800;52.142;5.364;2023-06-24T05:39:54;19.00;63.90
69595;DHT22;56800;52.142;5.364;2023-06-24T05:42:21;19.10;64.00
69595;DHT22;56800;52.142;5.364;2023-06-24T05:44:49;19.10;63.80
69595;DHT22;56800;52.142;5.364;2023-06-24T05:47:16;19.10;63.60
69595;DHT22;56800;52.142;5.364;2023-06-24T05:49:42;19.20;63.60
69595;DHT22;56800;52.142;5.364;2023-06-24T05:52:09;19.20;63.40
69595;DHT22;56800;52.142;5.364;2023-06-24T05:54:36;19.30;63.40
69595;DHT22;56800;52.142;5.364;2023-06-24T05:57:03;19.30;63.40
69595;DHT22;56800;52.142;5.364;2023-06-24T05:59:33;19.40;63.30
69595;DHT22;56800;52.142;5.364;2023-06-24T06:02:00;19.40;63.30
69595;DHT22;56800;52.142;5.364;2023-06-24T06:04:28;19.40;64.00
69595;DHT22;56800;52.142;5.364;2023-06-24T06:06:55;19.50;63.20
69595;DHT22;56800;52.142;5.364;2023-06-24T06:09:22;19.50;63.30
69595;DHT22;56800;52.142;5.364;2023-06-24T06:11:49;19.60;63.30
69595;DHT22;56800;52.142;5.364;2023-06-24T06:14:16;19.60;63.20
69595;DHT22;56800;52.142;5.364;2023-06-24T06:16:42;19.70;63.20
69595;DHT22;56800;52.142;5.364;2023-06-24T06:19:09;19.70;63.20
69595;DHT22;56800;52.142;5.364;2023-06-24T06:21:37;19.70;63.00
69595;DHT22;56800;52.142;5.364;2023-06-24T06:24:04;19.80;63.00
69595;DHT22;56800;52.142;5.364;2023-06-24T06:26:31;19.80;63.00
69595;DHT22;56800;52.142;5.364;2023-06-24T06:28:58;19.90;63.10
69595;DHT22;56800;52.142;5.364;2023-06-24T06:31:24;20.00;63.10
69595;DHT22;56800;52.142;5.364;2023-06-24T06:33:53;20.00;62.90
69595;DHT22;56800;52.142;5.364;2023-06-24T06:36:19;20.10;62.80
69595;DHT22;56800;52.142;5.364;2023-06-24T06:38:47;20.20;62.80
69595;DHT22;56800;52.142;5.364;2023-06-24T06:41:13;20.20;62.60
69595;DHT22;56800;52.142;5.364;2023-06-24T06:43:40;20.30;62.60
69595;DHT22;56800;52.142;5.364;2023-06-24T06:46:07;20.30;62.70
69595;DHT22;56800;52.142;5.364;2023-06-24T06:48:33;20.40;62.70
69595;DHT22;56800;52.142;5.364;2023-06-24T06:51:00;20.50;62.50
69595;DHT22;56800;52.142;5.364;2023-06-24T06:53:27;20.50;62.40
69595;DHT22;56800;52.142;5.364;2023-06-24T06:55:53;20.60;62.30
69595;DHT22;56800;52.142;5.364;2023-06-24T06:58:20;20.70;62.20
69595;DHT22;56800;52.142;5.364;2023-06-24T07:00:47;20.80;62.00
69595;DHT22;56800;52.142;5.364;2023-06-24T07:03:14;20.90;61.80
69595;DHT22;56800;52.142;5.364;2023-06-24T07:05:41;21.00;61.80
69595;DHT22;56800;52.142;5.364;2023-06-24T07:08:08;21.00;61.70
69595;DHT22;56800;52.142;5.364;2023-06-24T07:10:35;21.10;61.70
69595;DHT22;56800;52.142;5.364;2023-06-24T07:13:01;21.10;61.50
69595;DHT22;56800;52.142;5.364;2023-06-24T07:15:28;21.20;61.40
69595;DHT22;56800;52.142;5.364;2023-06-24T07:17:55;21.20;61.40
69595;DHT22;56800;52.142;5.364;2023-06-24T07:20:22;21.30;61.40
69595;DHT22;56800;52.142;5.364;2023-06-24T07:22:49;21.40;61.20
69595;DHT22;56800;52.142;5.364;2023-06-24T07:25:15;21.50;61.00
69595;DHT22;56800;52.142;5.364;2023-06-24T07:27:42;21.60;60.80
69595;DHT22;56800;52.142;5.364;2023-06-24T07:30:09;21.70;60.60
69595;DHT22;56800;52.142;5.364;2023-06-24T07:32:36;21.70;60.40
69595;DHT22;56800;52.142;5.364;2023-06-24T07:35:03;21.80;60.20
69595;DHT22;56800;52.142;5.364;2023-06-24T07:37:30;21.90;60.10
69595;DHT22;56800;52.142;5.364;2023-06-24T07:39:56;22.00;60.20
69595;DHT22;56800;52.142;5.364;2023-06-24T07:42:23;22.10;60.10
69595;DHT22;56800;52.142;5.364;2023-06-24T07:44:50;22.20;59.80
69595;DHT22;56800;52.142;5.364;2023-06-24T07:47:17;22.20;59.40
69595;DHT22;56800;52.142;5.364;2023-06-24T07:49:45;22.30;59.10
69595;DHT22;56800;52.142;5.364;2023-06-24T07:52:12;22.40;58.80
69595;DHT22;56800;52.142;5.364;2023-06-24T07:54:38;22.50;58.50
69595;DHT22;56800;52.142;5.364;2023-06-24T07:57:05;22.60;58.10
69595;DHT22;56800;52.142;5.364;2023-06-24T07:59:32;22.70;57.80
69595;DHT22;56800;52.142;5.364;2023-06-24T08:01:59;22.80;58.40
69595;DHT22;56800;52.142;5.364;2023-06-24T08:04:26;22.90;56.70
69595;DHT22;56800;52.142;5.364;2023-06-24T08:06:53;23.00;56.30
69595;DHT22;56800;52.142;5.364;2023-06-24T08:09:19;23.00;55.70
69595;DHT22;56800;52.142;5.364;2023-06-24T08:11:46;23.10;55.40
69595;DHT22;56800;52.142;5.364;2023-06-24T08:14:13;23.20;55.40
69595;DHT22;56800;52.142;5.364;2023-06-24T08:16:40;23.30;55.30
69595;DHT22;56800;52.142;5.364;2023-06-24T08:19:06;23.40;55.30
69595;DHT22;56800;52.142;5.364;2023-06-24T08:21:33;23.50;55.40
69595;DHT22;56800;52.142;5.364;2023-06-24T08:24:01;23.60;55.50
69595;DHT22;56800;52.142;5.364;2023-06-24T08:26:27;23.70;55.00
69595;DHT22;56800;52.142;5.364;2023-06-24T08:28:54;23.80;54.50
69595;DHT22;56800;52.142;5.364;2023-06-24T08:31:21;23.90;54.40
69595;DHT22;56800;52.142;5.364;2023-06-24T08:33:52;23.90;54.20
69595;DHT22;56800;52.142;5.364;2023-06-24T08:36:22;24.00;54.10
69595;DHT22;56800;52.142;5.364;2023-06-24T08:38:50;24.10;53.90
69595;DHT22;56800;52.142;5.364;2023-06-24T08:41:16;24.20;53.50
69595;DHT22;56800;52.142;5.364;2023-06-24T08:43:43;24.30;53.20
69595;DHT22;56800;52.142;5.364;2023-06-24T08:46:12;24.30;52.80
69595;DHT22;56800;52.142;5.364;2023-06-24T08:48:42;24.30;52.80
69595;DHT22;56800;52.142;5.364;2023-06-24T08:51:12;24.40;52.80
69595;DHT22;56800;52.142;5.364;2023-06-24T08:53:42;24.50;52.70
69595;DHT22;56800;52.142;5.364;2023-06-24T08:56:09;24.50;52.50
69595;DHT22;56800;52.142;5.364;2023-06-24T08:58:36;24.60;52.50
69595;DHT22;56800;52.142;5.364;2023-06-24T09:01:03;24.60;52.20
69595;DHT22;56800;52.142;5.364;2023-06-24T09:03:30;24.70;52.30
69595;DHT22;56800;52.142;5.364;2023-06-24T09:05:58;24.80;51.90
69595;DHT22;56800;52.142;5.364;2023-06-24T09:08:24;24.90;51.70
69595;DHT22;56800;52.142;5.364;2023-06-24T09:10:54;25.00;51.50
69595;DHT22;56800;52.142;5.364;2023-06-24T09:13:33;25.10;51.50
69595;DHT22;56800;52.142;5.364;2023-06-24T09:16:11;25.20;51.20
69595;DHT22;56800;52.142;5.364;2023-06-24T09:18:39;25.30;50.70
69595;DHT22;56800;52.142;5.364;2023-06-24T09:21:06;25.30;50.30
69595;DHT22;56800;52.142;5.364;2023-06-24T09:23:37;25.50;50.40
69595;DHT22;56800;52.142;5.364;2023-06-24T09:26:04;25.50;49.80
69595;DHT22;56800;52.142;5.364;2023-06-24T09:28:31;25.60;50.00
69595;DHT22;56800;52.142;5.364;2023-06-24T09:31:08;25.70;49.60
69595;DHT22;56800;52.142;5.364;2023-06-24T09:33:46;25.80;49.20
69595;DHT22;56800;52.142;5.364;2023-06-24T09:36:14;25.90;49.20
69595;DHT22;56800;52.142;5.364;2023-06-24T09:38:43;26.00;48.90
69595;DHT22;56800;52.142;5.364;2023-06-24T09:41:11;26.00;48.60
69595;DHT22;56800;52.142;5.364;2023-06-24T09:43:42;26.00;48.30
69595;DHT22;56800;52.142;5.364;2023-06-24T09:46:11;26.10;48.10
69595;DHT22;56800;52.142;5.364;2023-06-24T09:48:38;26.20;48.30
69595;DHT22;56800;52.142;5.364;2023-06-24T09:51:05;26.30;48.60
69595;DHT22;56800;52.142;5.364;2023-06-24T09:53:33;26.40;48.10
69595;DHT22;56800;52.142;5.364;2023-06-24T09:56:02;26.50;47.90
69595;DHT22;56800;52.142;5.364;2023-06-24T09:58:32;26.60;47.40
69595;DHT22;56800;52.142;5.364;2023-06-24T10:01:03;26.70;47.30
69595;DHT22;56800;52.142;5.364;2023-06-24T10:03:36;26.80;47.10
69595;DHT22;56800;52.142;5.364;2023-06-24T10:06:04;26.90;46.80
69595;DHT22;56800;52.142;5.364;2023-06-24T10:08:32;26.90;46.80
69595;DHT22;56800;52.142;5.364;2023-06-24T10:10:59;27.00;46.90
69595;DHT22;56800;52.142;5.364;2023-06-24T10:13:27;27.00;46.70
69595;DHT22;56800;52.142;5.364;2023-06-24T10:15:56;27.10;46.90
69595;DHT22;56800;52.142;5.364;2023-06-24T10:18:35;27.20;46.80
69595;DHT22;56800;52.142;5.364;2023-06-24T10:21:07;27.30;46.30
69595;DHT22;56800;52.142;5.364;2023-06-24T10:26:28;27.40;46.10
69595;DHT22;56800;52.142;5.364;2023-06-24T10:39:49;27.90;44.90
69595;DHT22;56800;52.142;5.364;2023-06-24T10:47:42;28.00;43.90
69595;DHT22;56800;52.142;5.364;2023-06-24T10:50:15;27.90;44.00
69595;DHT22;56800;52.142;5.364;2023-06-24T10:52:44;27.90;43.80
69595;DHT22;56800;52.142;5.364;2023-06-24T10:55:14;28.10;44.00
69595;DHT22;56800;52.142;5.364;2023-06-24T10:57:42;28.20;43.90
69595;DHT22;56800;52.142;5.364;2023-06-24T11:00:10;28.20;43.90
69595;DHT22;56800;52.142;5.364;2023-06-24T11:02:37;28.20;43.70
69595;DHT22;56800;52.142;5.364;2023-06-24T11:05:04;28.30;43.30
69595;DHT22;56800;52.142;5.364;2023-06-24T11:07:36;28.30;42.80
69595;DHT22;56800;52.142;5.364;2023-06-24T11:10:09;28.30;42.70
69595;DHT22;56800;52.142;5.364;2023-06-24T11:12:40;28.10;43.00
69595;DHT22;56800;52.142;5.364;2023-06-24T11:15:08;28.00;43.60
69595;DHT22;56800;52.142;5.364;2023-06-24T11:17:36;28.10;44.40
69595;DHT22;56800;52.142;5.364;2023-06-24T11:20:16;28.20;44.00
69595;DHT22;56800;52.142;5.364;2023-06-24T11:22:43;28.30;44.90
69595;DHT22;56800;52.142;5.364;2023-06-24T11:25:18;28.50;45.80
69595;DHT22;56800;52.142;5.364;2023-06-24T11:27:45;28.60;44.20
69595;DHT22;56800;52.142;5.364;2023-06-24T11:30:13;28.60;44.10
69595;DHT22;56800;52.142;5.364;2023-06-24T11:32:41;28.60;44.00
69595;DHT22;56800;52.142;5.364;2023-06-24T11:35:09;28.60;44.00
69595;DHT22;56800;52.142;5.364;2023-06-24T11:37:36;28.50;44.10
69595;DHT22;56800;52.142;5.364;2023-06-24T11:40:07;28.30;44.10
69595;DHT22;56800;52.142;5.364;2023-06-24T11:42:41;28.20;44.90
69595;DHT22;56800;52.142;5.364;2023-06-24T11:45:11;28.10;44.20
69595;DHT22;56800;52.142;5.364;2023-06-24T11:47:41;28.00;44.60
69595;DHT22;56800;52.142;5.364;2023-06-24T11:50:09;28.00;44.90
69595;DHT22;56800;52.142;5.364;2023-06-24T11:52:42;27.90;45.10
69595;DHT22;56800;52.142;5.364;2023-06-24T11:55:24;27.80;45.20
69595;DHT22;56800;52.142;5.364;2023-06-24T11:57:58;27.80;45.20
69595;DHT22;56800;52.142;5.364;2023-06-24T12:00:31;27.70;45.20
69595;DHT22;56800;52.142;5.364;2023-06-24T12:03:00;27.70;45.40
69595;DHT22;56800;52.142;5.364;2023-06-24T12:05:29;27.70;45.70
69595;DHT22;56800;52.142;5.364;2023-06-24T12:08:17;27.80;46.00
69595;DHT22;56800;52.142;5.364;2023-06-24T12:10:44;28.00;45.50
69595;DHT22;56800;52.142;5.364;2023-06-24T12:13:12;28.10;44.90
69595;DHT22;56800;52.142;5.364;2023-06-24T12:15:39;28.10;44.40
69595;DHT22;56800;52.142;5.364;2023-06-24T12:18:05;28.10;44.60
69595;DHT22;56800;52.142;5.364;2023-06-24T12:20:32;28.10;45.00
69595;DHT22;56800;52.142;5.364;2023-06-24T12:23:04;28.10;44.80
69595;DHT22;56800;52.142;5.364;2023-06-24T12:25:31;28.00;44.60
69595;DHT22;56800;52.142;5.364;2023-06-24T12:27:58;28.10;45.00
69595;DHT22;56800;52.142;5.364;2023-06-24T12:30:26;28.10;45.60
69595;DHT22;56800;52.142;5.364;2023-06-24T12:32:53;28.20;44.70
69595;DHT22;56800;52.142;5.364;2023-06-24T12:35:24;28.20;44.10
69595;DHT22;56800;52.142;5.364;2023-06-24T12:37:55;28.20;45.10
69595;DHT22;56800;52.142;5.364;2023-06-24T12:40:21;28.10;44.20
69595;DHT22;56800;52.142;5.364;2023-06-24T12:42:48;28.10;44.20
69595;DHT22;56800;52.142;5.364;2023-06-24T12:45:15;28.10;44.40
69595;DHT22;56800;52.142;5.364;2023-06-24T12:47:42;28.20;44.70
69595;DHT22;56800;52.142;5.364;2023-06-24T12:50:09;28.20;45.00
69595;DHT22;56800;52.142;5.364;2023-06-24T12:52:36;28.20;45.30
69595;DHT22;56800;52.142;5.364;2023-06-24T12:55:05;28.10;46.00
69595;DHT22;56800;52.142;5.364;2023-06-24T12:57:33;28.10;44.50
69595;DHT22;56800;52.142;5.364;2023-06-24T12:59:59;28.10;44.80
69595;DHT22;56800;52.142;5.364;2023-06-24T13:02:26;28.20;44.50
69595;DHT22;56800;52.142;5.364;2023-06-24T13:04:53;28.30;44.00
69595;DHT22;56800;52.142;5.364;2023-06-24T13:07:19;28.50;43.80
69595;DHT22;56800;52.142;5.364;2023-06-24T13:09:46;28.80;44.20
69595;DHT22;56800;52.142;5.364;2023-06-24T13:12:13;29.00;42.50
69595;DHT22;56800;52.142;5.364;2023-06-24T13:14:40;29.10;42.50
69595;DHT22;56800;52.142;5.364;2023-06-24T13:17:06;29.20;42.00
69595;DHT22;56800;52.142;5.364;2023-06-24T13:19:33;29.20;42.00
69595;DHT22;56800;52.142;5.364;2023-06-24T13:22:00;29.20;42.00
69595;DHT22;56800;52.142;5.364;2023-06-24T13:24:26;29.20;41.80
69595;DHT22;56800;52.142;5.364;2023-06-24T13:26:53;29.40;41.40
69595;DHT22;56800;52.142;5.364;2023-06-24T13:29:20;29.40;41.00
69595;DHT22;56800;52.142;5.364;2023-06-24T13:31:47;29.40;41.30
69595;DHT22;56800;52.142;5.364;2023-06-24T13:34:14;29.30;41.10
69595;DHT22;56800;52.142;5.364;2023-06-24T13:36:41;29.30;41.30
69595;DHT22;56800;52.142;5.364;2023-06-24T13:39:08;29.20;41.30
69595;DHT22;56800;52.142;5.364;2023-06-24T13:41:38;29.40;41.60
69595;DHT22;56800;52.142;5.364;2023-06-24T13:44:05;29.70;41.50
69595;DHT22;56800;52.142;5.364;2023-06-24T13:46:32;29.90;40.60
69595;DHT22;56800;52.142;5.364;2023-06-24T13:48:59;30.00;40.60
69595;DHT22;56800;52.142;5.364;2023-06-24T13:51:31;30.30;40.50
69595;DHT22;56800;52.142;5.364;2023-06-24T13:53:58;30.30;39.80
69595;DHT22;56800;52.142;5.364;2023-06-24T13:56:25;30.50;40.00
69595;DHT22;56800;52.142;5.364;2023-06-24T13:58:53;30.60;39.60
69595;DHT22;56800;52.142;5.364;2023-06-24T14:01:21;30.50;38.80
69595;DHT22;56800;52.142;5.364;2023-06-24T14:03:49;30.40;39.00
69595;DHT22;56800;52.142;5.364;2023-06-24T14:06:18;30.30;39.10
69595;DHT22;56800;52.142;5.364;2023-06-24T14:08:45;30.10;39.60
69595;DHT22;56800;52.142;5.364;2023-06-24T14:11:12;30.00;39.60
69595;DHT22;56800;52.142;5.364;2023-06-24T14:13:40;29.90;39.70
69595;DHT22;56800;52.142;5.364;2023-06-24T14:16:06;29.90;40.40
69595;DHT22;56800;52.142;5.364;2023-06-24T14:18:33;29.80;40.50
69595;DHT22;56800;52.142;5.364;2023-06-24T14:21:02;29.80;40.30
69595;DHT22;56800;52.142;5.364;2023-06-24T14:23:30;29.80;40.20
69595;DHT22;56800;52.142;5.364;2023-06-24T14:25:57;29.90;40.30
69595;DHT22;56800;52.142;5.364;2023-06-24T14:28:24;30.00;40.40
69595;DHT22;56800;52.142;5.364;2023-06-24T14:30:51;30.00;39.80
69595;DHT22;56800;52.142;5.364;2023-06-24T14:33:18;30.20;39.90
69595;DHT22;56800;52.142;5.364;2023-06-24T14:35:45;30.20;40.00
69595;DHT22;56800;52.142;5.364;2023-06-24T14:38:12;30.30;39.40
69595;DHT22;56800;52.142;5.364;2023-06-24T14:40:38;30.30;39.30
69595;DHT22;56800;52.142;5.364;2023-06-24T14:43:05;30.30;39.30
69595;DHT22;56800;52.142;5.364;2023-06-24T14:45:32;30.40;39.40
69595;DHT22;56800;52.142;5.364;2023-06-24T14:47:58;30.50;39.00
69595;DHT22;56800;52.142;5.364;2023-06-24T14:50:25;30.70;38.40
69595;DHT22;56800;52.142;5.364;2023-06-24T14:52:52;30.80;38.40
69595;DHT22;56800;52.142;5.364;2023-06-24T14:55:20;30.90;38.20
69595;DHT22;56800;52.142;5.364;2023-06-24T14:57:47;31.00;38.30
69595;DHT22;56800;52.142;5.364;2023-06-24T15:00:14;31.00;38.30
69595;DHT22;56800;52.142;5.364;2023-06-24T15:02:40;31.00;38.30
69595;DHT22;56800;52.142;5.364;2023-06-24T15:05:08;31.10;39.50
69595;DHT22;56800;52.142;5.364;2023-06-24T15:07:35;31.20;38.20
69595;DHT22;56800;52.142;5.364;2023-06-24T15:10:02;31.30;38.00
69595;DHT22;56800;52.142;5.364;2023-06-24T15:12:29;31.30;37.80
69595;DHT22;56800;52.142;5.364;2023-06-24T15:14:55;31.20;37.70
69595;DHT22;56800;52.142;5.364;2023-06-24T15:17:22;31.10;38.00
69595;DHT22;56800;52.142;5.364;2023-06-24T15:19:51;31.00;38.20
69595;DHT22;56800;52.142;5.364;2023-06-24T15:22:18;30.90;38.00
69595;DHT22;56800;52.142;5.364;2023-06-24T15:24:44;30.90;37.80
69595;DHT22;56800;52.142;5.364;2023-06-24T15:27:12;30.80;37.90
69595;DHT22;56800;52.142;5.364;2023-06-24T15:29:38;30.70;38.00
69595;DHT22;56800;52.142;5.364;2023-06-24T15:32:05;30.60;38.20
69595;DHT22;56800;52.142;5.364;2023-06-24T15:34:32;30.50;38.60
69595;DHT22;56800;52.142;5.364;2023-06-24T15:36:59;30.40;38.70
69595;DHT22;56800;52.142;5.364;2023-06-24T15:39:26;30.30;38.80
69595;DHT22;56800;52.142;5.364;2023-06-24T15:41:53;30.30;39.50
69595;DHT22;56800;52.142;5.364;2023-06-24T15:44:19;30.30;39.70
69595;DHT22;56800;52.142;5.364;2023-06-24T15:46:46;30.30;39.60
69595;DHT22;56800;52.142;5.364;2023-06-24T15:49:14;30.30;39.80
69595;DHT22;56800;52.142;5.364;2023-06-24T15:51:42;30.20;39.40
69595;DHT22;56800;52.142;5.364;2023-06-24T15:54:09;30.20;39.60
69595;DHT22;56800;52.142;5.364;2023-06-24T15:56:36;30.10;39.80
69595;DHT22;56800;52.142;5.364;2023-06-24T15:59:03;30.00;40.00
69595;DHT22;56800;52.142;5.364;2023-06-24T16:01:30;30.00;39.90
69595;DHT22;56800;52.142;5.364;2023-06-24T16:03:57;30.00;40.60